SBI5127 UNNT-URMM
Flight info
| Callsign | SBI5127 |
|---|---|
| Flight time | N/A |
| Altitude | 34000 |
| Route | LUNIM1K LUNIM B808 DAKIN N55 OGANU P574 AKT N37 IPLED DCT GOTIK DCT MEMZA A962 OKARU OKARU5B |
| Aircraft | A321/M-SDE3FGHIRWY/LB1 |
Departure
| Time | N/A |
|---|---|
| Airport | Novosibirsk Tolmachevo Airport (UNNT) |
Arrival
| Time | 2026-04-14 07:16 |
|---|---|
| Airport | Mineralnye Vody Airport (URMM) |
| Time | Latitude | Longitude | Altitude | Speed | Heading |
|---|---|---|---|---|---|
| 2026-04-14 05:46 | 45.95879 | 55.61632 | 34040 ft | 455 kts | 234° |
| 2026-04-14 05:47 | 45.92564 | 55.53907 | 34040 ft | 454 kts | 234° |
| 2026-04-14 05:47 | 45.89233 | 55.46176 | 34043 ft | 455 kts | 234° |
| 2026-04-14 05:48 | 45.85901 | 55.38463 | 34047 ft | 455 kts | 233° |
| 2026-04-14 05:48 | 45.82558 | 55.30749 | 34052 ft | 455 kts | 233° |
| 2026-04-14 05:49 | 45.79225 | 55.23081 | 34053 ft | 456 kts | 233° |
| 2026-04-14 05:49 | 45.76657 | 55.17188 | 34060 ft | 456 kts | 233° |
| 2026-04-14 05:51 | 45.73674 | 55.10375 | 34001 ft | 446 kts | 232° |
| 2026-04-14 05:52 | 45.70372 | 55.02847 | 33999 ft | 449 kts | 232° |
| 2026-04-14 05:52 | 45.67048 | 54.95246 | 34006 ft | 452 kts | 232° |
| 2026-04-14 05:53 | 45.63697 | 54.87618 | 34015 ft | 453 kts | 232° |
| 2026-04-14 05:53 | 45.60325 | 54.79993 | 34019 ft | 455 kts | 232° |
| 2026-04-14 05:54 | 45.56943 | 54.72357 | 34031 ft | 456 kts | 232° |
| 2026-04-14 05:54 | 45.53554 | 54.64700 | 34035 ft | 457 kts | 232° |
| 2026-04-14 05:55 | 45.50173 | 54.57083 | 34043 ft | 458 kts | 232° |
| 2026-04-14 05:55 | 45.46751 | 54.49418 | 34046 ft | 459 kts | 232° |
| 2026-04-14 05:56 | 45.43309 | 54.41759 | 34056 ft | 460 kts | 231° |
| 2026-04-14 05:56 | 45.39858 | 54.34085 | 34059 ft | 461 kts | 231° |
| 2026-04-14 05:57 | 45.36406 | 54.26403 | 34067 ft | 461 kts | 231° |
| 2026-04-14 05:57 | 45.32935 | 54.18721 | 34072 ft | 462 kts | 231° |
| 2026-04-14 05:58 | 45.29451 | 54.11031 | 34080 ft | 462 kts | 231° |
| 2026-04-14 05:58 | 45.25968 | 54.03366 | 34088 ft | 462 kts | 231° |
| 2026-04-14 05:59 | 45.22479 | 53.95716 | 34093 ft | 461 kts | 231° |
| 2026-04-14 05:59 | 45.18990 | 53.88082 | 34092 ft | 461 kts | 231° |
| 2026-04-14 06:00 | 45.15508 | 53.80458 | 34091 ft | 460 kts | 231° |
| 2026-04-14 06:00 | 45.12058 | 53.72900 | 34094 ft | 459 kts | 231° |
| 2026-04-14 06:01 | 45.08588 | 53.65331 | 34095 ft | 458 kts | 230° |
| 2026-04-14 06:01 | 45.05119 | 53.57775 | 34097 ft | 456 kts | 230° |
| 2026-04-14 06:02 | 45.01658 | 53.50247 | 34093 ft | 455 kts | 230° |
| 2026-04-14 06:02 | 44.98198 | 53.42765 | 34095 ft | 455 kts | 230° |
| 2026-04-14 06:03 | 44.94752 | 53.35338 | 34095 ft | 454 kts | 230° |
| 2026-04-14 06:04 | 44.89545 | 53.24163 | 34095 ft | 454 kts | 229° |
| 2026-04-14 06:04 | 44.86071 | 53.16736 | 34094 ft | 454 kts | 229° |
| 2026-04-14 06:05 | 44.82590 | 53.09311 | 34084 ft | 454 kts | 229° |
| 2026-04-14 06:05 | 44.79112 | 53.01901 | 34100 ft | 454 kts | 229° |
| 2026-04-14 06:06 | 44.75630 | 52.94498 | 34094 ft | 454 kts | 229° |
| 2026-04-14 06:06 | 44.72134 | 52.87099 | 34098 ft | 453 kts | 229° |
| 2026-04-14 06:07 | 44.68635 | 52.79724 | 34103 ft | 453 kts | 229° |
| 2026-04-14 06:07 | 44.65137 | 52.72365 | 34106 ft | 453 kts | 228° |
| 2026-04-14 06:08 | 44.61665 | 52.65068 | 34107 ft | 452 kts | 228° |
| 2026-04-14 06:08 | 44.58175 | 52.57745 | 34113 ft | 452 kts | 228° |
| 2026-04-14 06:09 | 44.54686 | 52.50425 | 34115 ft | 451 kts | 228° |
| 2026-04-14 06:09 | 44.51200 | 52.43124 | 34113 ft | 450 kts | 228° |
| 2026-04-14 06:10 | 44.47710 | 52.35866 | 34114 ft | 449 kts | 228° |
| 2026-04-14 06:10 | 44.44225 | 52.28630 | 34124 ft | 448 kts | 228° |
| 2026-04-14 06:11 | 44.40729 | 52.21410 | 34119 ft | 447 kts | 228° |
| 2026-04-14 06:11 | 44.37238 | 52.14207 | 34119 ft | 447 kts | 229° |
| 2026-04-14 06:12 | 44.33848 | 52.06904 | 34117 ft | 448 kts | 230° |
| 2026-04-14 06:12 | 44.30531 | 51.99525 | 34116 ft | 448 kts | 230° |
| 2026-04-14 06:13 | 44.27206 | 51.92171 | 34121 ft | 448 kts | 230° |
| 2026-04-14 06:13 | 44.23843 | 51.84870 | 34119 ft | 447 kts | 229° |
| 2026-04-14 06:14 | 44.20471 | 51.77583 | 34125 ft | 448 kts | 229° |
| 2026-04-14 06:14 | 44.17098 | 51.70289 | 34120 ft | 448 kts | 229° |
| 2026-04-14 06:15 | 44.13720 | 51.62992 | 34124 ft | 448 kts | 229° |
| 2026-04-14 06:15 | 44.10338 | 51.55716 | 34122 ft | 448 kts | 229° |
| 2026-04-14 06:16 | 44.06976 | 51.48480 | 34122 ft | 448 kts | 229° |
| 2026-04-14 06:16 | 44.03582 | 51.41205 | 34127 ft | 449 kts | 229° |
| 2026-04-14 06:17 | 44.00174 | 51.33936 | 34139 ft | 449 kts | 230° |
| 2026-04-14 06:17 | 43.96767 | 51.26668 | 34146 ft | 449 kts | 230° |
| 2026-04-14 06:18 | 43.93352 | 51.19395 | 34155 ft | 450 kts | 230° |
| 2026-04-14 06:18 | 43.89930 | 51.12130 | 34155 ft | 450 kts | 230° |
| 2026-04-14 06:19 | 43.86682 | 51.04599 | 34151 ft | 459 kts | 240° |
| 2026-04-14 06:19 | 43.84263 | 50.96456 | 34154 ft | 461 kts | 241° |
| 2026-04-14 06:20 | 43.81844 | 50.88219 | 34151 ft | 462 kts | 241° |
| 2026-04-14 06:20 | 43.79411 | 50.79997 | 34154 ft | 462 kts | 241° |
| 2026-04-14 06:21 | 43.76960 | 50.71783 | 34151 ft | 462 kts | 242° |
| 2026-04-14 06:21 | 43.74490 | 50.63567 | 34154 ft | 462 kts | 242° |
| 2026-04-14 06:22 | 43.72026 | 50.55342 | 34159 ft | 463 kts | 242° |
| 2026-04-14 06:22 | 43.69549 | 50.47117 | 34166 ft | 464 kts | 242° |
| 2026-04-14 06:23 | 43.67053 | 50.38896 | 34171 ft | 464 kts | 242° |
| 2026-04-14 06:23 | 43.64553 | 50.30674 | 34180 ft | 465 kts | 242° |
| 2026-04-14 06:24 | 43.62054 | 50.22446 | 34185 ft | 465 kts | 243° |
| 2026-04-14 06:24 | 43.59548 | 50.14225 | 34192 ft | 464 kts | 243° |
| 2026-04-14 06:25 | 43.57045 | 50.06023 | 34197 ft | 464 kts | 243° |
| 2026-04-14 06:25 | 43.54525 | 49.97838 | 34200 ft | 464 kts | 243° |
| 2026-04-14 06:26 | 43.52018 | 49.89709 | 34205 ft | 463 kts | 243° |
| 2026-04-14 06:26 | 43.49497 | 49.81537 | 34207 ft | 463 kts | 243° |
| 2026-04-14 06:27 | 43.46964 | 49.73379 | 34209 ft | 463 kts | 243° |
| 2026-04-14 06:27 | 43.44432 | 49.65234 | 34213 ft | 463 kts | 243° |
| 2026-04-14 06:28 | 43.41891 | 49.57092 | 34220 ft | 463 kts | 243° |
| 2026-04-14 06:28 | 43.40027 | 49.48591 | 34217 ft | 471 kts | 260° |
| 2026-04-14 06:29 | 43.40114 | 49.39517 | 34214 ft | 477 kts | 270° |
| 2026-04-14 06:29 | 43.40492 | 49.30416 | 34213 ft | 477 kts | 269° |
| 2026-04-14 06:30 | 43.40835 | 49.21304 | 34213 ft | 477 kts | 269° |
| 2026-04-14 06:30 | 43.41123 | 49.13728 | 34215 ft | 477 kts | 269° |
| 2026-04-14 06:31 | 43.41476 | 49.04619 | 34220 ft | 477 kts | 269° |
| 2026-04-14 06:31 | 43.41822 | 48.95505 | 34218 ft | 477 kts | 269° |
| 2026-04-14 06:32 | 43.42157 | 48.86397 | 34221 ft | 477 kts | 269° |
| 2026-04-14 06:32 | 43.42483 | 48.77298 | 34222 ft | 476 kts | 269° |
| 2026-04-14 06:33 | 43.42806 | 48.68202 | 34230 ft | 476 kts | 269° |
| 2026-04-14 06:33 | 43.43121 | 48.59100 | 34228 ft | 476 kts | 269° |
| 2026-04-14 06:34 | 43.43568 | 48.45454 | 34233 ft | 476 kts | 269° |
| 2026-04-14 06:34 | 43.43872 | 48.36365 | 34227 ft | 475 kts | 269° |
| 2026-04-14 06:35 | 43.44158 | 48.27287 | 34227 ft | 475 kts | 269° |
| 2026-04-14 06:35 | 43.44439 | 48.18212 | 34227 ft | 474 kts | 269° |
| 2026-04-14 06:36 | 43.44719 | 48.09146 | 34229 ft | 474 kts | 269° |
| 2026-04-14 06:36 | 43.44976 | 48.00085 | 34226 ft | 474 kts | 269° |
| 2026-04-14 06:37 | 43.45232 | 47.91032 | 34230 ft | 473 kts | 269° |
| 2026-04-14 06:37 | 43.45484 | 47.81981 | 34219 ft | 473 kts | 269° |
| 2026-04-14 06:38 | 43.45729 | 47.72920 | 34222 ft | 473 kts | 269° |
| 2026-04-14 06:38 | 43.45963 | 47.63872 | 34219 ft | 473 kts | 269° |
| 2026-04-14 06:39 | 43.46195 | 47.54832 | 34223 ft | 473 kts | 269° |
| 2026-04-14 06:39 | 43.46417 | 47.45795 | 34224 ft | 472 kts | 269° |
| 2026-04-14 06:40 | 43.46633 | 47.36754 | 34225 ft | 472 kts | 269° |
| 2026-04-14 06:40 | 43.46837 | 47.27791 | 34225 ft | 472 kts | 269° |
| 2026-04-14 06:41 | 43.47036 | 47.18771 | 34217 ft | 471 kts | 269° |
| 2026-04-14 06:41 | 43.47236 | 47.09759 | 34220 ft | 471 kts | 269° |
| 2026-04-14 06:42 | 43.47417 | 47.00756 | 34220 ft | 470 kts | 269° |
| 2026-04-14 06:42 | 43.47591 | 46.91758 | 34220 ft | 470 kts | 269° |
| 2026-04-14 06:43 | 43.47769 | 46.82776 | 34220 ft | 469 kts | 269° |
| 2026-04-14 06:43 | 43.47935 | 46.73796 | 34222 ft | 469 kts | 269° |
| 2026-04-14 06:44 | 43.48085 | 46.64819 | 34222 ft | 469 kts | 269° |
| 2026-04-14 06:44 | 43.48236 | 46.55915 | 34225 ft | 468 kts | 269° |
| 2026-04-14 06:45 | 43.48374 | 46.46963 | 34223 ft | 467 kts | 269° |
| 2026-04-14 06:45 | 43.48507 | 46.38012 | 34222 ft | 467 kts | 269° |
| 2026-04-14 06:46 | 43.48704 | 46.24607 | 34221 ft | 467 kts | 269° |
| 2026-04-14 06:47 | 43.48820 | 46.15691 | 34220 ft | 467 kts | 269° |
| 2026-04-14 06:47 | 43.48926 | 46.06738 | 34226 ft | 467 kts | 269° |
| 2026-04-14 06:48 | 43.49484 | 45.97834 | 34231 ft | 468 kts | 275° |
| 2026-04-14 06:48 | 43.50230 | 45.89057 | 34205 ft | 446 kts | 275° |
| 2026-04-14 06:48 | 43.50581 | 45.84880 | 34212 ft | 434 kts | 275° |
| 2026-04-14 06:49 | 43.50921 | 45.80769 | 34211 ft | 430 kts | 275° |
| 2026-04-14 06:49 | 43.51590 | 45.72599 | 34214 ft | 428 kts | 275° |
| 2026-04-14 06:50 | 43.52246 | 45.64445 | 34214 ft | 428 kts | 275° |
| 2026-04-14 06:50 | 43.52895 | 45.56298 | 34209 ft | 427 kts | 275° |
| 2026-04-14 06:50 | 43.53222 | 45.52210 | 33895 ft | 431 kts | 275° |
| 2026-04-14 06:51 | 43.53549 | 45.48096 | 33272 ft | 431 kts | 274° |
| 2026-04-14 06:51 | 43.53874 | 45.44016 | 32808 ft | 426 kts | 274° |
| 2026-04-14 06:51 | 43.54193 | 45.39981 | 32333 ft | 421 kts | 274° |
| 2026-04-14 06:51 | 43.54507 | 45.35990 | 31859 ft | 417 kts | 274° |
| 2026-04-14 06:52 | 43.54815 | 45.32039 | 31394 ft | 413 kts | 274° |
| 2026-04-14 06:52 | 43.55121 | 45.28115 | 30932 ft | 409 kts | 274° |
| 2026-04-14 06:52 | 43.55421 | 45.24232 | 30482 ft | 405 kts | 274° |
| 2026-04-14 06:52 | 43.55718 | 45.20392 | 29999 ft | 401 kts | 273° |
| 2026-04-14 06:53 | 43.56011 | 45.16591 | 29552 ft | 396 kts | 273° |
| 2026-04-14 06:53 | 43.56298 | 45.12846 | 29134 ft | 390 kts | 273° |
| 2026-04-14 06:53 | 43.56577 | 45.09151 | 28732 ft | 385 kts | 273° |
| 2026-04-14 06:53 | 43.56846 | 45.05553 | 28326 ft | 380 kts | 273° |
| 2026-04-14 06:54 | 43.57114 | 45.01959 | 27934 ft | 374 kts | 272° |
| 2026-04-14 06:54 | 43.57381 | 44.98410 | 27550 ft | 369 kts | 272° |
| 2026-04-14 06:54 | 43.57644 | 44.94910 | 27177 ft | 364 kts | 272° |
| 2026-04-14 06:54 | 43.57903 | 44.91464 | 26810 ft | 359 kts | 272° |
| 2026-04-14 06:55 | 43.58158 | 44.88064 | 26445 ft | 354 kts | 272° |
| 2026-04-14 06:55 | 43.58406 | 44.84704 | 26075 ft | 349 kts | 271° |
| 2026-04-14 06:55 | 43.58648 | 44.81357 | 25715 ft | 358 kts | 271° |
| 2026-04-14 06:55 | 43.58892 | 44.77925 | 25322 ft | 359 kts | 271° |
| 2026-04-14 06:56 | 43.59140 | 44.74437 | 24936 ft | 374 kts | 271° |
| 2026-04-14 06:56 | 43.59395 | 44.70879 | 24524 ft | 372 kts | 271° |
| 2026-04-14 06:56 | 43.59655 | 44.67350 | 24108 ft | 368 kts | 271° |
| 2026-04-14 06:56 | 43.59775 | 44.65727 | 23918 ft | 366 kts | 271° |
| 2026-04-14 06:57 | 43.60031 | 44.62248 | 23463 ft | 362 kts | 271° |
| 2026-04-14 06:57 | 43.60278 | 44.58859 | 23045 ft | 357 kts | 271° |
| 2026-04-14 06:57 | 43.60520 | 44.55484 | 22634 ft | 351 kts | 271° |
| 2026-04-14 06:57 | 43.60755 | 44.52153 | 22234 ft | 347 kts | 271° |
| 2026-04-14 06:58 | 43.60985 | 44.48863 | 21817 ft | 342 kts | 271° |
| 2026-04-14 06:58 | 43.61211 | 44.45610 | 21422 ft | 339 kts | 271° |
| 2026-04-14 06:58 | 43.61436 | 44.42382 | 21016 ft | 337 kts | 271° |
| 2026-04-14 06:58 | 43.61658 | 44.39182 | 20620 ft | 333 kts | 271° |
| 2026-04-14 06:59 | 43.61877 | 44.36022 | 20226 ft | 329 kts | 271° |
| 2026-04-14 06:59 | 43.62091 | 44.32895 | 19837 ft | 326 kts | 271° |
| 2026-04-14 06:59 | 43.62302 | 44.29795 | 19438 ft | 323 kts | 272° |
| 2026-04-14 06:59 | 43.62516 | 44.26614 | 19057 ft | 346 kts | 272° |
| 2026-04-14 07:00 | 43.62737 | 44.23291 | 18639 ft | 346 kts | 272° |
| 2026-04-14 07:00 | 43.62964 | 44.20002 | 18197 ft | 343 kts | 272° |
| 2026-04-14 07:00 | 43.63218 | 44.16738 | 17775 ft | 342 kts | 277° |
| 2026-04-14 07:00 | 43.63901 | 44.13594 | 17370 ft | 342 kts | 292° |
| 2026-04-14 07:01 | 43.65126 | 44.10782 | 16938 ft | 342 kts | 307° |
| 2026-04-14 07:01 | 43.66710 | 44.08349 | 16509 ft | 340 kts | 311° |
| 2026-04-14 07:01 | 43.68311 | 44.05955 | 16085 ft | 337 kts | 311° |
| 2026-04-14 07:01 | 43.69885 | 44.03586 | 15659 ft | 334 kts | 310° |
| 2026-04-14 07:02 | 43.71427 | 44.01259 | 15254 ft | 331 kts | 310° |
| 2026-04-14 07:02 | 43.72972 | 43.98928 | 14840 ft | 327 kts | 310° |
| 2026-04-14 07:02 | 43.74500 | 43.96619 | 14430 ft | 324 kts | 310° |
| 2026-04-14 07:02 | 43.76018 | 43.94326 | 14033 ft | 321 kts | 310° |
| 2026-04-14 07:03 | 43.77518 | 43.92059 | 13596 ft | 317 kts | 310° |
| 2026-04-14 07:03 | 43.78999 | 43.89816 | 13181 ft | 314 kts | 310° |
| 2026-04-14 07:03 | 43.80460 | 43.87598 | 12798 ft | 310 kts | 310° |
| 2026-04-14 07:03 | 43.81904 | 43.85401 | 12409 ft | 307 kts | 310° |
| 2026-04-14 07:04 | 43.83337 | 43.83227 | 12037 ft | 304 kts | 311° |
| 2026-04-14 07:04 | 43.84750 | 43.81073 | 11666 ft | 301 kts | 310° |
| 2026-04-14 07:04 | 43.86085 | 43.78862 | 11299 ft | 298 kts | 307° |
| 2026-04-14 07:04 | 43.87354 | 43.76609 | 10929 ft | 295 kts | 306° |
| 2026-04-14 07:05 | 43.88585 | 43.74355 | 10606 ft | 290 kts | 306° |
| 2026-04-14 07:05 | 43.89766 | 43.72186 | 10387 ft | 274 kts | 306° |
| 2026-04-14 07:05 | 43.90899 | 43.70117 | 9887 ft | 268 kts | 306° |
| 2026-04-14 07:05 | 43.92036 | 43.68049 | 9523 ft | 270 kts | 306° |
| 2026-04-14 07:06 | 43.93180 | 43.65974 | 9027 ft | 271 kts | 307° |
| 2026-04-14 07:06 | 43.94323 | 43.63915 | 8666 ft | 267 kts | 307° |
| 2026-04-14 07:06 | 43.95449 | 43.61890 | 8330 ft | 264 kts | 307° |
| 2026-04-14 07:06 | 43.96567 | 43.59881 | 7999 ft | 261 kts | 307° |
| 2026-04-14 07:07 | 43.97673 | 43.57889 | 7673 ft | 260 kts | 307° |
| 2026-04-14 07:07 | 43.98762 | 43.55924 | 7448 ft | 252 kts | 307° |
| 2026-04-14 07:07 | 43.99805 | 43.54037 | 7218 ft | 246 kts | 307° |
| 2026-04-14 07:07 | 44.00830 | 43.52186 | 7108 ft | 236 kts | 307° |
| 2026-04-14 07:08 | 44.01810 | 43.50415 | 6948 ft | 227 kts | 307° |
| 2026-04-14 07:08 | 44.02758 | 43.48706 | 6478 ft | 221 kts | 307° |
| 2026-04-14 07:08 | 44.03693 | 43.47022 | 5930 ft | 217 kts | 307° |
| 2026-04-14 07:08 | 44.04617 | 43.45352 | 5639 ft | 218 kts | 307° |
| 2026-04-14 07:09 | 44.05542 | 43.43678 | 5339 ft | 218 kts | 307° |
| 2026-04-14 07:09 | 44.06440 | 43.42045 | 5173 ft | 206 kts | 307° |
| 2026-04-14 07:09 | 44.07288 | 43.40501 | 5121 ft | 198 kts | 307° |
| 2026-04-14 07:09 | 44.08120 | 43.38984 | 5031 ft | 197 kts | 307° |
| 2026-04-14 07:10 | 44.08951 | 43.37472 | 4955 ft | 196 kts | 306° |
| 2026-04-14 07:10 | 44.09778 | 43.35966 | 4869 ft | 196 kts | 307° |
| 2026-04-14 07:10 | 44.10604 | 43.34466 | 4768 ft | 194 kts | 307° |
| 2026-04-14 07:10 | 44.11413 | 43.32994 | 4706 ft | 194 kts | 306° |
| 2026-04-14 07:11 | 44.12219 | 43.31495 | 4526 ft | 193 kts | 303° |
| 2026-04-14 07:11 | 44.12935 | 43.29968 | 4255 ft | 183 kts | 301° |
| 2026-04-14 07:11 | 44.13586 | 43.28511 | 4062 ft | 174 kts | 300° |
| 2026-04-14 07:11 | 44.14181 | 43.27143 | 3935 ft | 159 kts | 299° |
| 2026-04-14 07:12 | 44.14733 | 43.25854 | 3728 ft | 152 kts | 300° |
| 2026-04-14 07:12 | 44.15272 | 43.24637 | 3527 ft | 140 kts | 300° |
| 2026-04-14 07:12 | 44.15773 | 43.23523 | 3350 ft | 132 kts | 300° |
| 2026-04-14 07:12 | 44.16258 | 43.22451 | 3168 ft | 130 kts | 300° |
| 2026-04-14 07:13 | 44.16739 | 43.21390 | 2996 ft | 129 kts | 301° |
| 2026-04-14 07:13 | 44.17217 | 43.20338 | 2823 ft | 128 kts | 300° |
| 2026-04-14 07:13 | 44.17687 | 43.19302 | 2643 ft | 126 kts | 300° |
| 2026-04-14 07:13 | 44.18162 | 43.18243 | 2484 ft | 137 kts | 299° |
| 2026-04-14 07:14 | 44.18666 | 43.17167 | 2286 ft | 128 kts | 300° |
| 2026-04-14 07:14 | 44.19002 | 43.16485 | 2123 ft | 127 kts | 300° |
| 2026-04-14 07:14 | 44.19631 | 43.15113 | 1877 ft | 129 kts | 300° |
| 2026-04-14 07:14 | 44.20117 | 43.14058 | 1753 ft | 135 kts | 298° |
| 2026-04-14 07:15 | 44.20610 | 43.12959 | 1559 ft | 134 kts | 298° |
| 2026-04-14 07:15 | 44.21100 | 43.11846 | 1363 ft | 135 kts | 299° |
| 2026-04-14 07:15 | 44.21597 | 43.10724 | 1148 ft | 134 kts | 297° |
| 2026-04-14 07:15 | 44.22053 | 43.09682 | 1061 ft | 113 kts | 301° |
| 2026-04-14 07:16 | 44.22421 | 43.08872 | 1053 ft | 83 kts | 302° |
| 2026-04-14 07:16 | 44.22681 | 43.08298 | 1050 ft | 58 kts | 303° |
| 2026-04-14 07:16 | 44.22863 | 43.07901 | 1050 ft | 41 kts | 302° |
| 2026-04-14 07:16 | 44.23001 | 43.07591 | 1052 ft | 35 kts | 302° |
| 2026-04-14 07:17 | 44.23138 | 43.07293 | 1049 ft | 38 kts | 302° |
| 2026-04-14 07:17 | 44.23276 | 43.06992 | 1046 ft | 36 kts | 302° |
| 2026-04-14 07:17 | 44.23405 | 43.06707 | 1048 ft | 33 kts | 302° |
| 2026-04-14 07:17 | 44.23519 | 43.06453 | 1050 ft | 25 kts | 302° |
| 2026-04-14 07:18 | 44.23569 | 43.06295 | 1051 ft | 12 kts | 276° |
| 2026-04-14 07:18 | 44.23594 | 43.06254 | 1050 ft | 2 kts | 38° |
| 2026-04-14 07:18 | 44.23582 | 43.06311 | 1053 ft | 9 kts | 117° |
| 2026-04-14 07:18 | 44.23542 | 43.06399 | 1051 ft | 13 kts | 122° |
| 2026-04-14 07:19 | 44.23503 | 43.06487 | 1050 ft | 18 kts | 122° |
| 2026-04-14 07:19 | 44.23435 | 43.06635 | 1050 ft | 19 kts | 123° |
| 2026-04-14 07:19 | 44.23357 | 43.06807 | 1047 ft | 22 kts | 122° |
| 2026-04-14 07:19 | 44.23273 | 43.06996 | 1046 ft | 24 kts | 123° |
| 2026-04-14 07:20 | 44.23181 | 43.07195 | 1048 ft | 24 kts | 122° |
| 2026-04-14 07:20 | 44.23091 | 43.07395 | 1049 ft | 25 kts | 122° |
| 2026-04-14 07:20 | 44.23001 | 43.07594 | 1051 ft | 25 kts | 122° |
| 2026-04-14 07:20 | 44.22905 | 43.07804 | 1051 ft | 26 kts | 123° |
| 2026-04-14 07:21 | 44.22804 | 43.08026 | 1049 ft | 28 kts | 123° |
| 2026-04-14 07:21 | 44.22699 | 43.08255 | 1050 ft | 28 kts | 122° |
| 2026-04-14 07:21 | 44.22596 | 43.08485 | 1054 ft | 28 kts | 122° |
| 2026-04-14 07:21 | 44.22519 | 43.08653 | 1056 ft | 19 kts | 124° |
| 2026-04-14 07:22 | 44.22423 | 43.08786 | 1054 ft | 21 kts | 144° |
| 2026-04-14 07:22 | 44.22304 | 43.08882 | 1052 ft | 18 kts | 152° |
| 2026-04-14 07:22 | 44.22189 | 43.08966 | 1053 ft | 19 kts | 151° |
| 2026-04-14 07:22 | 44.22066 | 43.09059 | 1052 ft | 21 kts | 152° |
| 2026-04-14 07:23 | 44.21967 | 43.09127 | 1051 ft | 12 kts | 165° |
| 2026-04-14 07:23 | 44.21891 | 43.09086 | 1051 ft | 13 kts | 211° |
| 2026-04-14 07:23 | 44.21843 | 43.09059 | 1051 ft | 0 kts | 179° |
| 2026-04-14 07:24 | 44.21841 | 43.09058 | 1051 ft | 1 kts | 186° |
| 2026-04-14 07:24 | 44.21833 | 43.09052 | 1051 ft | 2 kts | 207° |
| 2026-04-14 07:24 | 44.21806 | 43.09030 | 1051 ft | 7 kts | 211° |
| 2026-04-14 07:24 | 44.21778 | 43.09006 | 1051 ft | 4 kts | 212° |
| 2026-04-14 07:25 | 44.21767 | 43.08996 | 1051 ft | 3 kts | 212° |
| 2026-04-14 07:25 | 44.21756 | 43.08987 | 1051 ft | 1 kts | 212° |
| 2026-04-14 07:25 | 44.21751 | 43.08981 | 1051 ft | 0 kts | 212° |
| 2026-04-14 07:27 | 44.21751 | 43.08982 | 1051 ft | 0 kts | 212° |